Sterling/Rock Falls, Illinois
Current Conditions -  °F | °C
As of 12:35 PM on Thursday 29 Jan 2015 (Local Time) from KSQI Reporting Station
Overcast Overcast  
Wind Chill: 26°   Ceiling: 2000
Heat Index: 36°   Visibility: 10mi
Dew Point: 28°   Wind: 16mph
Humidity: 75%   Direction: 340°NNW
Pressure: 30.05"   Gusts: 22mph
Location:  41.73°N, 89.68°W
Report Text: KSQI 291835Z AUTO 34014G19KT 10SM OVC020 02/M02 A3005 RMK AO1
Loading
Personal Weather Stations






























Interactive Weather Map New forecast layout! Learn more

10-Day Weather Forecast

Advertisements
Track Severe Weather on mobile